createdAt,value
2023-04-04T00:01:06.499Z,0.90
2023-04-04T00:03:34.891Z,0.90
2023-04-04T00:06:03.212Z,0.90
2023-04-04T00:08:31.601Z,0.90
2023-04-04T00:11:00.118Z,0.90
2023-04-04T00:13:30.169Z,0.90
2023-04-04T00:15:58.961Z,0.80
2023-04-04T00:18:27.250Z,0.80
2023-04-04T00:20:55.544Z,0.90
2023-04-04T00:23:23.787Z,0.80
2023-04-04T00:25:52.976Z,0.80
2023-04-04T00:28:21.507Z,0.90
2023-04-04T00:30:51.254Z,0.90
2023-04-04T00:33:19.501Z,0.90
2023-04-04T00:35:49.295Z,0.80
2023-04-04T00:38:17.564Z,0.90
2023-04-04T00:40:47.944Z,0.80
2023-04-04T00:43:16.594Z,0.80
2023-04-04T00:45:44.935Z,0.80
2023-04-04T00:48:14.685Z,0.90
2023-04-04T00:50:42.952Z,0.90
2023-04-04T00:53:11.364Z,0.80
2023-04-04T00:55:40.451Z,0.90
2023-04-04T00:58:09.186Z,0.90
2023-04-04T01:00:38.467Z,0.90
2023-04-04T01:03:10.310Z,0.90
2023-04-04T01:05:40.242Z,0.90
2023-04-04T01:08:08.776Z,0.90
2023-04-04T01:10:37.782Z,0.90
2023-04-04T01:13:06.136Z,0.90
2023-04-04T01:15:34.447Z,0.90
2023-04-04T01:18:05.229Z,0.90
2023-04-04T01:20:35.191Z,0.80
2023-04-04T01:23:05.919Z,0.90
2023-04-04T01:25:35.679Z,0.80
2023-04-04T01:28:11.193Z,0.90
2023-04-04T01:30:41.373Z,0.90
2023-04-04T01:33:11.708Z,0.90
2023-04-04T01:35:44.116Z,0.90
2023-04-04T01:38:16.918Z,0.90
2023-04-04T01:40:49.854Z,0.90
2023-04-04T01:43:19.034Z,0.90
2023-04-04T01:45:47.678Z,0.90
2023-04-04T01:48:16.848Z,0.90
2023-04-04T01:50:48.932Z,0.90
2023-04-04T01:53:17.921Z,0.90
2023-04-04T01:55:47.498Z,0.90
2023-04-04T01:58:18.496Z,0.90
2023-04-04T02:00:47.082Z,0.90
2023-04-04T02:03:15.333Z,0.90
2023-04-04T02:05:44.174Z,0.90
2023-04-04T02:08:12.496Z,0.90
2023-04-04T02:10:50.905Z,0.90
2023-04-04T02:13:20.067Z,0.90
2023-04-04T02:15:50.370Z,0.80
2023-04-04T02:18:18.659Z,0.80
2023-04-04T02:20:46.948Z,0.80
2023-04-04T02:23:15.249Z,0.80
2023-04-04T02:25:43.480Z,0.80
2023-04-04T02:28:13.230Z,0.80
2023-04-04T02:30:41.949Z,0.80
2023-04-04T02:33:10.310Z,0.80
2023-04-04T02:35:38.560Z,0.80
2023-04-04T02:38:11.236Z,0.80
2023-04-04T02:40:47.727Z,0.80
2023-04-04T02:43:18.688Z,0.80
2023-04-04T02:45:49.263Z,0.80
2023-04-04T02:48:36.449Z,0.80
2023-04-04T02:51:04.893Z,0.80
2023-04-04T02:53:34.903Z,0.80
2023-04-04T02:56:14.584Z,0.80
2023-04-04T02:58:44.261Z,0.80
2023-04-04T03:01:12.766Z,0.80
2023-04-04T03:03:41.139Z,0.70
2023-04-04T03:06:09.597Z,0.70
2023-04-04T03:08:37.840Z,0.70
2023-04-04T03:11:06.711Z,0.70
2023-04-04T03:13:35.003Z,0.60
2023-04-04T03:16:06.905Z,0.70
2023-04-04T03:18:48.148Z,0.70
2023-04-04T03:21:18.850Z,0.70
2023-04-04T03:23:48.503Z,0.70
2023-04-04T03:26:16.775Z,0.70
2023-04-04T03:28:45.007Z,0.70
2023-04-04T03:31:15.877Z,0.70
2023-04-04T03:33:45.452Z,0.80
2023-04-04T03:36:13.858Z,0.80
2023-04-04T03:38:42.509Z,0.80
2023-04-04T03:41:11.848Z,0.80
2023-04-04T03:43:40.112Z,0.90
2023-04-04T03:46:09.167Z,0.90
2023-04-04T03:48:38.899Z,0.80
2023-04-04T03:51:10.170Z,0.80
2023-04-04T03:53:39.744Z,0.80
2023-04-04T03:56:08.034Z,0.80
2023-04-04T03:58:36.794Z,0.80
2023-04-04T04:01:05.086Z,0.80
2023-04-04T04:03:33.626Z,0.80
2023-04-04T04:06:03.286Z,0.80
2023-04-04T04:08:31.813Z,0.80
2023-04-04T04:11:05.198Z,0.80
2023-04-04T04:13:34.953Z,0.90
2023-04-04T04:16:04.600Z,0.90
2023-04-04T04:18:33.706Z,0.80
2023-04-04T04:21:05.139Z,0.80
2023-04-04T04:23:34.869Z,0.80
2023-04-04T04:26:03.709Z,0.80
2023-04-04T04:28:33.892Z,0.80
2023-04-04T04:31:08.484Z,0.80
2023-04-04T04:33:43.214Z,0.80
2023-04-04T04:36:13.497Z,0.80
2023-04-04T04:38:58.897Z,0.80
2023-04-04T04:41:30.465Z,0.90
2023-04-04T04:43:58.843Z,0.80
2023-04-04T04:46:28.717Z,0.90
2023-04-04T04:48:58.226Z,0.90
2023-04-04T04:51:32.104Z,0.90
2023-04-04T04:54:01.122Z,0.90
2023-04-04T04:56:30.231Z,0.90
2023-04-04T04:59:07.563Z,0.90
2023-04-04T05:01:37.094Z,0.90
2023-04-04T05:04:05.782Z,0.90
2023-04-04T05:06:42.585Z,0.90
2023-04-04T05:09:13.308Z,0.90
2023-04-04T05:11:41.713Z,0.90
2023-04-04T05:14:11.778Z,0.90
2023-04-04T05:16:49.109Z,1.00
2023-04-04T05:19:19.061Z,1.00
2023-04-04T05:21:54.166Z,1.00
2023-04-04T05:24:52.566Z,1.00
2023-04-04T05:27:25.334Z,1.00
2023-04-04T05:29:58.886Z,1.10
2023-04-04T05:32:36.842Z,1.10
2023-04-04T05:35:11.502Z,1.10
2023-04-04T05:37:42.047Z,1.10
2023-04-04T05:40:15.119Z,1.10
2023-04-04T05:42:45.999Z,1.20
2023-04-04T05:45:14.424Z,1.20
2023-04-04T05:47:44.982Z,1.20
2023-04-04T05:50:14.473Z,1.20
2023-04-04T05:52:44.262Z,1.20
2023-04-04T05:55:14.856Z,1.20
2023-04-04T05:57:48.678Z,1.20
2023-04-04T06:00:21.511Z,1.20
2023-04-04T06:03:02.366Z,1.30
2023-04-04T06:05:31.681Z,1.30
2023-04-04T06:08:01.621Z,1.20
2023-04-04T06:10:30.588Z,1.30
2023-04-04T06:12:59.039Z,1.30
2023-04-04T06:15:27.857Z,1.30
2023-04-04T06:17:56.145Z,1.30
2023-04-04T06:20:25.532Z,1.30
2023-04-04T06:22:55.477Z,1.30
2023-04-04T06:25:26.932Z,1.40
2023-04-04T06:27:59.502Z,1.30
2023-04-04T06:30:28.432Z,1.30
2023-04-04T06:32:56.767Z,1.30
2023-04-04T06:35:29.314Z,1.30
2023-04-04T06:38:00.669Z,1.40
2023-04-04T06:40:31.731Z,1.40
2023-04-04T06:43:00.294Z,1.40
2023-04-04T06:45:35.988Z,1.50
2023-04-04T06:48:04.453Z,1.50
2023-04-04T06:50:35.043Z,1.60
2023-04-04T06:53:06.731Z,1.60
2023-04-04T06:55:36.788Z,1.60
2023-04-04T06:58:05.143Z,1.60
2023-04-04T07:00:33.417Z,1.70
2023-04-04T07:03:02.331Z,1.70
2023-04-04T07:05:30.635Z,1.80
2023-04-04T07:07:59.002Z,1.90
2023-04-04T07:10:27.606Z,1.80
2023-04-04T07:12:57.279Z,1.80
2023-04-04T07:15:25.667Z,1.80
2023-04-04T07:17:54.053Z,1.70
2023-04-04T07:20:22.444Z,1.80
2023-04-04T07:22:51.793Z,1.80
2023-04-04T07:25:20.149Z,1.80
2023-04-04T07:27:48.503Z,1.90
2023-04-04T07:30:19.408Z,1.90
2023-04-04T07:32:47.844Z,1.90
2023-04-04T07:35:17.403Z,2.00
2023-04-04T07:37:45.912Z,2.10
2023-04-04T07:40:14.579Z,2.10
2023-04-04T07:42:45.295Z,2.10
2023-04-04T07:45:14.925Z,2.30
2023-04-04T07:47:46.308Z,2.30
2023-04-04T07:50:14.861Z,2.30
2023-04-04T07:52:43.722Z,2.30
2023-04-04T07:55:12.126Z,2.40
2023-04-04T07:57:42.618Z,2.40
2023-04-04T08:00:12.581Z,2.30
2023-04-04T08:02:46.656Z,2.20
2023-04-04T08:05:15.048Z,2.30
2023-04-04T08:07:43.486Z,2.30
2023-04-04T08:10:12.024Z,2.20
2023-04-04T08:12:40.511Z,2.20
2023-04-04T08:15:09.318Z,2.20
2023-04-04T08:17:37.937Z,2.30
2023-04-04T08:20:08.378Z,2.30
2023-04-04T08:22:37.206Z,2.30
2023-04-04T08:25:05.975Z,2.40
2023-04-04T08:27:34.425Z,2.50
2023-04-04T08:30:04.094Z,2.60
2023-04-04T08:32:33.874Z,2.70
2023-04-04T08:35:02.206Z,2.70
2023-04-04T08:37:32.328Z,2.70
2023-04-04T08:40:00.722Z,2.60
2023-04-04T08:42:30.149Z,2.50
2023-04-04T08:45:02.356Z,2.50
2023-04-04T08:47:33.336Z,2.40
2023-04-04T08:50:03.802Z,2.40
2023-04-04T08:52:34.769Z,2.40
2023-04-04T08:55:04.074Z,2.40
2023-04-04T08:57:33.925Z,2.40
2023-04-04T09:00:06.230Z,2.30
2023-04-04T09:02:36.177Z,2.30
2023-04-04T09:05:06.749Z,2.30
2023-04-04T09:07:39.130Z,2.50
2023-04-04T09:10:10.722Z,2.80
2023-04-04T09:12:40.249Z,3.70
2023-04-04T09:15:10.005Z,3.00
2023-04-04T09:17:38.677Z,3.00
2023-04-04T09:20:22.076Z,3.00
2023-04-04T09:22:51.844Z,3.00
2023-04-04T09:25:20.186Z,3.00
2023-04-04T09:27:50.073Z,3.00
2023-04-04T09:30:18.686Z,3.00
2023-04-04T09:32:46.970Z,2.80
2023-04-04T09:35:16.260Z,2.70
2023-04-04T09:37:45.340Z,2.60
2023-04-04T09:40:16.115Z,2.50
2023-04-04T09:42:44.755Z,2.30
2023-04-04T09:45:19.547Z,2.30
2023-04-04T09:47:55.276Z,2.30
2023-04-04T09:50:30.513Z,2.30
2023-04-04T09:53:00.456Z,2.20
2023-04-04T09:55:36.697Z,2.20
2023-04-04T09:58:13.065Z,2.10
2023-04-04T10:00:44.992Z,2.10
2023-04-04T10:03:15.351Z,2.20
2023-04-04T10:05:43.823Z,2.30
2023-04-04T10:08:16.273Z,2.40
2023-04-04T10:11:06.457Z,2.40
2023-04-04T10:13:41.287Z,2.30
2023-04-04T10:16:11.064Z,2.30
2023-04-04T10:18:40.031Z,2.20
2023-04-04T10:23:43.072Z,2.20
2023-04-04T10:26:13.846Z,2.10
2023-04-04T10:28:44.094Z,2.10
2023-04-04T10:31:18.628Z,2.20
2023-04-04T10:33:49.441Z,2.30
2023-04-04T10:36:18.654Z,2.30
2023-04-04T10:38:50.209Z,2.20
2023-04-04T10:41:21.040Z,2.20
2023-04-04T10:43:49.801Z,2.10
2023-04-04T10:46:20.616Z,2.20
2023-04-04T10:48:51.308Z,2.10
2023-04-04T10:51:19.916Z,2.10
2023-04-04T10:53:48.230Z,2.10
2023-04-04T10:56:17.708Z,2.20
2023-04-04T10:58:47.642Z,2.20
2023-04-04T11:01:21.524Z,2.20
2023-04-04T11:04:09.410Z,2.20
2023-04-04T11:06:56.252Z,2.20
2023-04-04T11:09:40.373Z,2.10
2023-04-04T11:12:09.757Z,2.10
2023-04-04T11:14:40.257Z,2.10
2023-04-04T11:17:10.034Z,2.10
2023-04-04T11:19:41.166Z,2.20
2023-04-04T11:22:09.712Z,2.20
2023-04-04T11:24:44.742Z,2.20
2023-04-04T11:27:13.283Z,2.20
2023-04-04T11:29:53.564Z,2.10
2023-04-04T11:32:35.963Z,2.10
2023-04-04T11:35:06.117Z,2.00
2023-04-04T11:37:44.177Z,2.00
2023-04-04T11:40:14.165Z,2.00
2023-04-04T11:42:43.067Z,2.10
2023-04-04T11:45:19.684Z,2.10
2023-04-04T11:47:48.552Z,2.10
2023-04-04T11:50:17.493Z,2.20
2023-04-04T11:52:46.443Z,2.10
2023-04-04T11:55:19.167Z,2.20
2023-04-04T11:57:48.167Z,2.20
2023-04-04T12:00:30.649Z,2.20
2023-04-04T12:02:59.538Z,2.30
2023-04-04T12:05:28.950Z,2.30
2023-04-04T12:08:03.268Z,2.30
2023-04-04T12:10:33.529Z,2.20
2023-04-04T12:13:02.908Z,2.20
2023-04-04T12:15:33.496Z,2.10
2023-04-04T12:18:02.625Z,2.10
2023-04-04T12:20:32.397Z,2.10
2023-04-04T12:23:00.815Z,2.10
2023-04-04T12:25:34.125Z,2.10
2023-04-04T12:28:03.884Z,2.10
2023-04-04T12:30:34.831Z,2.10
2023-04-04T12:33:03.377Z,2.10
2023-04-04T12:35:32.143Z,2.10
2023-04-04T12:38:01.687Z,2.10
2023-04-04T12:40:33.904Z,2.10
2023-04-04T12:43:02.682Z,2.10
2023-04-04T12:45:31.005Z,2.10
2023-04-04T12:48:00.864Z,2.10
2023-04-04T12:50:29.607Z,2.10
2023-04-04T12:53:23.959Z,2.10
2023-04-04T12:55:50.983Z,2.00
2023-04-04T12:58:19.838Z,2.00
2023-04-04T13:00:48.679Z,2.10
2023-04-04T13:03:18.794Z,2.10
2023-04-04T13:05:50.406Z,2.20
2023-04-04T13:08:20.006Z,2.20
2023-04-04T13:10:58.001Z,2.20
2023-04-04T13:13:33.064Z,2.10
2023-04-04T13:16:01.798Z,2.10
2023-04-04T13:18:35.881Z,2.20
2023-04-04T13:21:04.468Z,2.10
2023-04-04T13:23:34.310Z,2.20
2023-04-04T13:26:04.718Z,2.20
2023-04-04T13:28:33.277Z,2.30
2023-04-04T13:31:03.162Z,2.30
2023-04-04T13:33:31.701Z,2.30
2023-04-04T13:36:01.866Z,2.40
2023-04-04T13:38:30.892Z,2.60
2023-04-04T13:43:28.044Z,2.60
2023-04-04T13:45:56.573Z,2.70
2023-04-04T13:48:26.569Z,2.70
2023-04-04T13:53:45.488Z,2.80
2023-04-04T13:56:01.658Z,2.80
2023-04-04T13:56:18.201Z,2.80
2023-04-04T13:58:47.364Z,2.80
2023-04-04T14:01:15.702Z,2.80
2023-04-04T14:03:44.402Z,2.70
2023-04-04T14:06:12.728Z,2.70
2023-04-04T14:08:41.254Z,2.70
2023-04-04T14:11:11.141Z,2.70
2023-04-04T14:13:39.646Z,2.60
2023-04-04T14:16:08.493Z,2.60
2023-04-04T14:18:36.936Z,2.60
2023-04-04T14:21:05.692Z,2.60
2023-04-04T14:23:34.148Z,2.50
2023-04-04T14:26:02.454Z,2.40
2023-04-04T14:28:32.798Z,2.40
2023-04-04T14:31:01.382Z,2.40
2023-04-04T14:33:29.694Z,2.40
2023-04-04T14:35:58.236Z,2.30
2023-04-04T14:40:57.628Z,2.10
2023-04-04T14:43:26.162Z,2.00
2023-04-04T14:45:56.193Z,1.90
2023-04-04T14:48:25.688Z,1.70
2023-04-04T14:50:54.066Z,1.60
2023-04-04T14:53:22.948Z,1.60
2023-04-04T14:55:52.400Z,1.50
2023-04-04T14:58:21.078Z,1.40
2023-04-04T15:00:49.771Z,1.40
2023-04-04T15:03:19.575Z,1.30
2023-04-04T15:05:48.036Z,1.30
2023-04-04T15:08:16.511Z,1.30
2023-04-04T15:10:45.132Z,1.30
2023-04-04T15:13:13.526Z,1.20
2023-04-04T15:15:42.045Z,1.20
2023-04-04T15:18:10.505Z,1.10
2023-04-04T15:20:40.671Z,1.10
2023-04-04T15:23:09.066Z,1.00
2023-04-04T15:25:37.480Z,1.10
2023-04-04T15:28:05.974Z,1.20
2023-04-04T15:30:34.576Z,1.20
2023-04-04T15:33:03.370Z,1.20
2023-04-04T15:35:31.718Z,1.20
2023-04-04T15:38:01.772Z,1.20
2023-04-04T15:40:31.373Z,1.20
2023-04-04T15:43:00.021Z,1.20
2023-04-04T15:45:28.536Z,1.20
2023-04-04T15:47:57.967Z,1.20
2023-04-04T15:50:27.512Z,1.20
2023-04-04T15:52:56.277Z,1.20
2023-04-04T15:55:26.275Z,1.20
2023-04-04T15:57:54.588Z,1.20
2023-04-04T16:00:22.996Z,1.30
2023-04-04T16:02:51.629Z,1.30
2023-04-04T16:05:20.208Z,1.20
2023-04-04T16:07:48.628Z,1.10
2023-04-04T16:10:17.261Z,1.10
2023-04-04T16:12:47.180Z,1.10
2023-04-04T16:15:15.821Z,1.10
2023-04-04T16:17:44.190Z,1.00
2023-04-04T16:20:13.180Z,1.00
2023-04-04T16:22:41.785Z,1.00
2023-04-04T16:25:11.003Z,1.00
2023-04-04T16:27:40.874Z,1.00
2023-04-04T16:30:12.036Z,1.00
2023-04-04T16:32:41.904Z,0.90
2023-04-04T16:35:10.564Z,0.90
2023-04-04T16:37:38.890Z,1.10
2023-04-04T16:40:12.347Z,0.80
2023-04-04T16:42:41.736Z,0.80
2023-04-04T16:45:12.325Z,0.80
2023-04-04T16:47:41.034Z,0.80
2023-04-04T16:50:09.818Z,0.80
2023-04-04T16:52:38.415Z,0.80
2023-04-04T16:55:07.523Z,0.90
2023-04-04T16:57:35.988Z,0.90
2023-04-04T17:00:06.702Z,0.90
2023-04-04T17:02:36.524Z,0.90
2023-04-04T17:05:06.192Z,0.80
2023-04-04T17:07:34.565Z,0.80
2023-04-04T17:10:02.971Z,0.80
2023-04-04T17:12:31.395Z,0.80
2023-04-04T17:14:59.784Z,0.80
2023-04-04T17:17:28.418Z,0.80
2023-04-04T17:19:58.526Z,0.80
2023-04-04T17:22:27.347Z,0.80
2023-04-04T17:24:55.823Z,0.80
2023-04-04T17:27:24.219Z,0.70
2023-04-04T17:29:52.759Z,0.80
2023-04-04T17:32:21.070Z,0.80
2023-04-04T17:34:49.892Z,0.70
2023-04-04T17:37:19.577Z,0.70
2023-04-04T17:39:48.142Z,0.80
2023-04-04T17:42:16.539Z,0.80
2023-04-04T17:44:44.953Z,0.70
2023-04-04T17:47:14.065Z,0.80
2023-04-04T17:49:42.622Z,0.70
2023-04-04T17:52:14.310Z,0.70
2023-04-04T17:54:44.190Z,0.60
2023-04-04T17:57:12.792Z,0.60
2023-04-04T17:59:42.327Z,0.60
2023-04-04T18:02:11.016Z,0.60
2023-04-04T18:04:39.972Z,0.60
2023-04-04T18:07:08.658Z,0.60
2023-04-04T18:09:37.224Z,0.60
2023-04-04T18:12:07.203Z,0.60
2023-04-04T18:17:04.289Z,0.60
2023-04-04T18:19:32.733Z,0.50
2023-04-04T18:22:01.119Z,0.50
2023-04-04T18:24:29.587Z,0.50
2023-04-04T18:26:57.958Z,0.60
2023-04-04T18:29:30.868Z,0.60
2023-04-04T18:32:01.361Z,0.60
2023-04-04T18:34:29.816Z,0.60
2023-04-04T18:36:58.547Z,0.70
2023-04-04T18:39:27.697Z,0.70
2023-04-04T18:41:58.213Z,0.80
2023-04-04T18:44:28.268Z,0.80
2023-04-04T18:46:58.406Z,0.80
2023-04-04T18:49:27.327Z,0.90
2023-04-04T18:51:55.756Z,0.90
2023-04-04T18:54:24.033Z,0.90
2023-04-04T18:56:52.332Z,0.90
2023-04-04T18:59:22.624Z,0.90
2023-04-04T19:01:54.209Z,0.90
2023-04-04T19:04:22.716Z,0.90
2023-04-04T19:06:52.162Z,0.90
2023-04-04T19:09:21.090Z,0.80
2023-04-04T19:11:49.415Z,0.90
2023-04-04T19:14:19.556Z,0.80
2023-04-04T19:16:48.065Z,0.80
2023-04-04T19:19:18.811Z,0.90
2023-04-04T19:21:47.264Z,0.90
2023-04-04T19:24:17.377Z,0.90
2023-04-04T19:26:47.194Z,0.90
2023-04-04T19:29:18.916Z,0.90
2023-04-04T19:31:47.512Z,0.80
2023-04-04T19:34:20.689Z,0.80
2023-04-04T19:36:49.142Z,0.90
2023-04-04T19:39:19.767Z,0.90
2023-04-04T19:41:48.116Z,0.90
2023-04-04T19:44:19.465Z,0.90
2023-04-04T19:46:48.474Z,0.80
2023-04-04T19:49:18.047Z,0.90
2023-04-04T19:51:51.968Z,0.90
2023-04-04T19:54:23.510Z,0.90
2023-04-04T19:56:52.970Z,0.90
2023-04-04T19:59:39.759Z,0.90
2023-04-04T20:02:09.273Z,0.90
2023-04-04T20:04:37.708Z,0.90
2023-04-04T20:07:08.151Z,0.90
2023-04-04T20:09:40.143Z,0.90
2023-04-04T20:12:09.516Z,1.00
2023-04-04T20:14:38.079Z,0.90
2023-04-04T20:17:06.392Z,1.00
2023-04-04T20:19:35.415Z,1.00
2023-04-04T20:22:05.521Z,1.00
2023-04-04T20:24:35.420Z,1.00
2023-04-04T20:27:04.065Z,1.00
2023-04-04T20:29:33.172Z,1.00
2023-04-04T20:32:02.149Z,1.00
2023-04-04T20:34:37.626Z,1.00
2023-04-04T20:37:07.666Z,0.90
2023-04-04T20:39:40.663Z,1.00
2023-04-04T20:42:15.870Z,1.00
2023-04-04T20:44:44.302Z,1.00
2023-04-04T20:47:27.476Z,1.00
2023-04-04T20:49:55.970Z,1.00
2023-04-04T20:52:24.749Z,1.00
2023-04-04T20:54:54.577Z,1.00
2023-04-04T20:57:24.862Z,0.90
2023-04-04T20:59:53.758Z,0.90
2023-04-04T21:02:23.614Z,0.90
2023-04-04T21:04:52.481Z,0.90
2023-04-04T21:07:35.845Z,0.90
2023-04-04T21:10:19.879Z,0.90
2023-04-04T21:12:48.346Z,0.90
2023-04-04T21:15:21.614Z,0.90
2023-04-04T21:17:50.291Z,1.00
2023-04-04T21:20:39.015Z,1.00
2023-04-04T21:23:08.044Z,1.00
2023-04-04T21:25:45.424Z,0.90
2023-04-04T21:28:14.095Z,0.90
2023-04-04T21:30:44.352Z,0.90
2023-04-04T21:33:17.545Z,0.90
2023-04-04T21:35:48.104Z,0.90
2023-04-04T21:38:30.986Z,0.90
2023-04-04T21:41:01.352Z,0.90
2023-04-04T21:43:29.790Z,0.90
2023-04-04T21:45:58.159Z,0.80
2023-04-04T21:48:27.813Z,0.80
2023-04-04T21:50:56.331Z,0.80
2023-04-04T21:53:25.027Z,0.80
2023-04-04T21:55:53.371Z,0.80
2023-04-04T21:58:23.300Z,0.80
2023-04-04T22:00:52.316Z,0.80
2023-04-04T22:03:20.608Z,0.80
2023-04-04T22:05:49.080Z,0.70
2023-04-04T22:08:17.399Z,0.70
2023-04-04T22:10:47.675Z,0.70
2023-04-04T22:13:17.386Z,0.70
2023-04-04T22:15:47.730Z,0.60
2023-04-04T22:18:16.446Z,0.70
2023-04-04T22:20:47.004Z,0.70
2023-04-04T22:23:17.820Z,0.70
2023-04-04T22:25:46.355Z,0.70
2023-04-04T22:28:18.304Z,0.70
2023-04-04T22:30:49.273Z,0.70
2023-04-04T22:33:17.712Z,0.70
2023-04-04T22:35:46.418Z,0.70
2023-04-04T22:38:15.581Z,0.70
2023-04-04T22:40:43.962Z,0.70
2023-04-04T22:43:12.419Z,0.70
2023-04-04T22:45:40.965Z,0.70
2023-04-04T22:48:11.128Z,0.70
2023-04-04T22:50:39.911Z,0.70
2023-04-04T22:53:13.245Z,0.60
2023-04-04T22:55:41.703Z,0.70
2023-04-04T22:58:10.244Z,0.60
2023-04-04T23:00:38.883Z,0.70
2023-04-04T23:03:07.535Z,0.70
2023-04-04T23:05:37.366Z,0.70
2023-04-04T23:08:05.854Z,0.70
2023-04-04T23:10:34.174Z,0.70
2023-04-04T23:13:02.488Z,0.70
2023-04-04T23:15:33.195Z,0.70
2023-04-04T23:18:01.599Z,0.60
2023-04-04T23:20:32.316Z,0.60
2023-04-04T23:23:02.602Z,0.60
2023-04-04T23:25:30.926Z,0.60
2023-04-04T23:27:59.371Z,0.50
2023-04-04T23:30:28.709Z,0.50
2023-04-04T23:32:57.014Z,0.50
2023-04-04T23:35:25.321Z,0.50
2023-04-04T23:37:53.631Z,0.50
2023-04-04T23:40:23.578Z,0.50
2023-04-04T23:42:51.982Z,0.50
2023-04-04T23:45:20.717Z,0.50
2023-04-04T23:47:49.197Z,0.60
2023-04-04T23:50:19.299Z,0.60
2023-04-04T23:52:47.661Z,0.60
2023-04-04T23:55:17.180Z,0.60
2023-04-04T23:57:47.141Z,0.60
